Time;durP1;ratioP1;P1;durP2;ratioP2;P2;SDS_P1;SDS_P2;PMS_P1;PMS_P2;Temp;Humidity;BMP_temperature;BMP_pressure;BME280_temperature;BME280_humidity;BME280_pressure;Samples;Min_cycle;Max_cycle;Signal;HPM_P1;HPM_P2
2021/08/21 00:01:18;;;;;;;11.07;10.17;;;15.30;99.90;;;;;;5033833;28;20990;-62
2021/08/21 00:03:45;;;;;;;13.83;10.90;;;15.30;99.90;;;;;;5034890;28;20953;-60
2021/08/21 00:06:12;;;;;;;11.23;10.10;;;15.30;99.90;;;;;;5048330;28;20598;-62
2021/08/21 00:08:39;;;;;;;11.03;9.93;;;15.30;99.90;;;;;;5033990;28;20936;-60
2021/08/21 00:11:07;;;;;;;15.63;11.73;;;15.20;99.90;;;;;;5039307;28;20460;-62
2021/08/21 00:13:33;;;;;;;14.40;11.40;;;15.20;99.90;;;;;;5053716;28;20492;-63
2021/08/21 00:16:01;;;;;;;17.40;11.60;;;15.20;99.90;;;;;;5053192;28;20879;-63
2021/08/21 00:18:28;;;;;;;11.67;10.67;;;15.20;99.90;;;;;;5053755;28;20443;-63
2021/08/21 00:20:54;;;;;;;12.43;11.17;;;15.20;99.90;;;;;;5049173;28;20464;-62
2021/08/21 00:23:21;;;;;;;11.70;10.60;;;15.20;99.90;;;;;;5033650;28;20456;-62
2021/08/21 00:25:48;;;;;;;14.90;12.60;;;15.20;99.90;;;;;;5033719;28;20437;-64
2021/08/21 00:28:16;;;;;;;14.87;11.40;;;15.10;99.90;;;;;;5033608;28;20814;-61
2021/08/21 00:30:43;;;;;;;13.93;11.27;;;15.10;99.90;;;;;;5034043;28;20473;-60
2021/08/21 00:33:09;;;;;;;11.10;10.10;;;15.10;99.90;;;;;;5043559;28;20468;-63
2021/08/21 00:35:36;;;;;;;12.50;11.40;;;15.00;99.90;;;;;;5049964;28;20495;-62
2021/08/21 00:38:03;;;;;;;11.47;10.30;;;15.00;99.90;;;;;;5053449;28;20444;-63
2021/08/21 00:40:30;;;;;;;12.50;10.77;;;15.00;99.90;;;;;;5053385;28;20866;-61
2021/08/21 00:42:57;;;;;;;12.43;11.10;;;15.00;99.90;;;;;;5052556;28;20440;-65
2021/08/21 00:45:25;;;;;;;13.50;10.23;;;15.00;99.90;;;;;;5053405;28;20440;-62
2021/08/21 00:47:52;;;;;;;11.57;10.57;;;15.00;99.90;;;;;;5053400;28;20475;-62
2021/08/21 00:50:19;;;;;;;14.00;11.53;;;14.90;99.90;;;;;;5053145;28;20961;-62
2021/08/21 00:52:46;;;;;;;13.43;10.57;;;14.90;99.90;;;;;;5050468;28;20471;-62
2021/08/21 00:55:12;;;;;;;10.70;9.60;;;14.80;99.90;;;;;;5033157;28;20456;-61
2021/08/21 00:57:39;;;;;;;10.63;9.60;;;14.90;99.90;;;;;;5033018;28;20445;-63
2021/08/21 01:00:08;;;;;;;10.17;9.27;;;14.80;99.90;;;;;;5032931;28;20879;-62
2021/08/21 01:02:36;;;;;;;11.10;10.07;;;14.80;99.90;;;;;;5047668;28;20456;-61
2021/08/21 01:05:07;;;;;;;14.90;10.53;;;14.80;99.90;;;;;;5052985;28;20459;-62
2021/08/21 01:07:35;;;;;;;11.57;10.17;;;14.80;99.90;;;;;;5051155;28;20444;-62
2021/08/21 01:10:05;;;;;;;13.83;10.57;;;14.70;99.90;;;;;;5052800;28;20460;-64
2021/08/21 01:12:32;;;;;;;13.00;11.27;;;14.70;99.90;;;;;;5037739;28;20449;-61
2021/08/21 01:14:58;;;;;;;12.50;10.67;;;14.70;99.90;;;;;;5032753;28;20448;-63
2021/08/21 01:17:27;;;;;;;12.07;10.80;;;14.70;99.90;;;;;;5052390;28;20468;-62
2021/08/21 01:19:55;;;;;;;11.13;10.00;;;14.70;99.90;;;;;;5052405;28;20499;-61
2021/08/21 01:22:25;;;;;;;11.53;10.43;;;14.70;99.90;;;;;;5039299;28;20923;-63
2021/08/21 01:24:54;;;;;;;11.70;10.50;;;14.70;99.90;;;;;;5032576;28;20453;-62
2021/08/21 01:27:24;;;;;;;13.23;10.20;;;14.60;99.90;;;;;;5031533;28;20914;-64
2021/08/21 01:29:51;;;;;;;13.67;10.70;;;14.60;99.90;;;;;;5032280;28;20659;-61
2021/08/21 01:32:20;;;;;;;13.20;10.80;;;14.60;99.90;;;;;;5043900;28;20937;-63
2021/08/21 01:34:47;;;;;;;13.50;10.70;;;14.70;99.90;;;;;;5052042;28;20459;-61
2021/08/21 01:37:17;;;;;;;12.67;11.40;;;14.70;99.90;;;;;;5052194;28;21019;-63
2021/08/21 01:39:44;;;;;;;14.00;10.50;;;14.70;99.90;;;;;;5051972;28;20460;-60
2021/08/21 01:42:11;;;;;;;12.13;10.30;;;14.60;99.90;;;;;;5040547;28;20859;-63
2021/08/21 01:44:39;;;;;;;11.57;10.47;;;14.60;99.90;;;;;;5032285;28;20452;-62
2021/08/21 01:47:06;;;;;;;12.00;10.83;;;14.70;99.90;;;;;;5046659;28;20444;-62
2021/08/21 01:49:32;;;;;;;10.47;9.40;;;14.70;99.90;;;;;;5038093;28;20445;-62
2021/08/21 01:52:03;;;;;;;13.27;10.70;;;14.70;99.90;;;;;;5031842;28;20445;-62
2021/08/21 01:54:30;;;;;;;12.00;10.90;;;14.70;99.90;;;;;;5031990;28;20440;-60
2021/08/21 01:56:59;;;;;;;13.57;12.17;;;14.70;99.90;;;;;;5031801;28;20476;-62
2021/08/21 01:59:29;;;;;;;12.07;10.87;;;14.70;99.90;;;;;;5042834;28;20452;-64
2021/08/21 02:01:58;;;;;;;12.30;11.00;;;14.70;99.90;;;;;;5051000;28;20448;-63
2021/08/21 02:04:26;;;;;;;12.37;11.17;;;14.70;99.90;;;;;;5051726;28;20457;-63
2021/08/21 02:06:53;;;;;;;15.20;12.20;;;14.60;99.90;;;;;;5051530;28;20443;-61
2021/08/21 02:09:21;;;;;;;13.20;10.70;;;14.60;99.90;;;;;;5039763;28;20499;-63
2021/08/21 02:11:49;;;;;;;14.90;10.23;;;14.60;99.90;;;;;;5031747;28;20441;-63
2021/08/21 02:14:17;;;;;;;10.27;9.37;;;14.60;99.90;;;;;;5031599;28;20454;-63
2021/08/21 02:16:45;;;;;;;21.37;11.83;;;14.50;99.90;;;;;;5031548;28;20480;-62
2021/08/21 02:19:13;;;;;;;12.43;11.13;;;14.50;99.90;;;;;;5041617;28;20451;-62
2021/08/21 02:21:40;;;;;;;14.80;11.17;;;14.50;99.90;;;;;;5051148;28;20487;-62
2021/08/21 02:24:07;;;;;;;14.20;10.83;;;14.50;99.90;;;;;;5051580;28;20444;-62
2021/08/21 02:26:37;;;;;;;12.03;10.37;;;14.50;99.90;;;;;;5049372;28;20462;-62
2021/08/21 02:29:04;;;;;;;12.97;10.90;;;14.40;99.90;;;;;;5031505;28;20445;-63
2021/08/21 02:31:30;;;;;;;11.93;10.17;;;14.50;99.90;;;;;;5031234;28;20472;-62
2021/08/21 02:33:57;;;;;;;10.97;9.80;;;14.50;99.90;;;;;;5031534;28;20455;-62
2021/08/21 02:36:25;;;;;;;13.20;10.90;;;14.40;99.90;;;;;;5031328;28;20495;-63
2021/08/21 02:38:52;;;;;;;12.10;10.90;;;14.40;99.90;;;;;;5051000;28;20444;-62
2021/08/21 02:41:19;;;;;;;12.30;10.60;;;14.40;99.90;;;;;;5051131;28;20472;-62
2021/08/21 02:43:46;;;;;;;14.30;12.83;;;14.40;99.90;;;;;;5051139;28;20456;-63
2021/08/21 02:46:13;;;;;;;12.83;11.33;;;14.40;99.90;;;;;;5051517;28;20471;-62
2021/08/21 02:48:39;;;;;;;12.57;11.17;;;14.40;99.90;;;;;;5032348;28;20445;-62
2021/08/21 02:51:06;;;;;;;13.37;10.93;;;14.30;99.90;;;;;;5030916;28;20962;-62
2021/08/21 02:53:34;;;;;;;11.40;10.23;;;14.30;99.90;;;;;;5031062;28;20444;-63
2021/08/21 02:56:01;;;;;;;11.40;10.10;;;14.30;99.90;;;;;;5031133;28;20452;-63
2021/08/21 02:58:28;;;;;;;13.30;10.40;;;14.30;99.90;;;;;;5047838;28;20448;-63
2021/08/21 03:00:55;;;;;;;22.80;12.43;;;14.30;99.90;;;;;;5050861;28;20487;-62
2021/08/21 03:03:21;;;;;;;12.63;10.57;;;14.30;99.90;;;;;;5050969;28;20876;-61
2021/08/21 03:05:48;;;;;;;13.40;10.70;;;14.30;99.90;;;;;;5041923;28;20457;-61
2021/08/21 03:08:15;;;;;;;16.93;11.17;;;14.30;99.90;;;;;;5031144;28;20441;-62
2021/08/21 03:10:43;;;;;;;15.30;11.20;;;14.30;99.90;;;;;;5031023;28;20464;-62
2021/08/21 03:13:10;;;;;;;12.63;10.90;;;14.30;99.90;;;;;;5011103;28;20788;-62
2021/08/21 03:15:37;;;;;;;13.60;11.07;;;14.30;99.90;;;;;;5025503;28;20448;-60
2021/08/21 03:18:04;;;;;;;14.80;12.20;;;14.30;99.90;;;;;;5050568;28;20490;-63
2021/08/21 03:20:30;;;;;;;16.17;12.67;;;14.30;99.90;;;;;;5050751;28;20483;-62
2021/08/21 03:22:57;;;;;;;18.50;14.10;;;14.30;99.90;;;;;;5050563;28;20444;-63
2021/08/21 03:25:24;;;;;;;13.27;11.90;;;14.30;99.90;;;;;;5045493;28;20452;-62
2021/08/21 03:27:52;;;;;;;18.67;13.83;;;14.30;99.90;;;;;;5030902;28;20441;-61
2021/08/21 03:30:19;;;;;;;13.27;12.00;;;14.30;99.90;;;;;;5030741;28;20465;-63
2021/08/21 03:32:46;;;;;;;16.23;12.37;;;14.30;99.90;;;;;;5030512;28;21120;-63
2021/08/21 03:35:13;;;;;;;18.97;13.07;;;14.30;99.90;;;;;;5033670;28;20448;-63
2021/08/21 03:37:39;;;;;;;17.90;16.00;;;14.40;99.90;;;;;;5050659;28;20821;-62
2021/08/21 03:40:08;;;;;;;16.60;14.90;;;14.30;99.90;;;;;;5050639;28;20931;-62
2021/08/21 03:42:35;;;;;;;15.93;12.77;;;14.30;99.90;;;;;;5050497;28;20917;-63
2021/08/21 03:45:03;;;;;;;18.00;12.60;;;14.40;99.90;;;;;;5049123;28;20444;-61
2021/08/21 03:47:30;;;;;;;18.57;15.07;;;14.40;99.90;;;;;;5030596;28;20437;-62
2021/08/21 03:49:56;;;;;;;18.10;13.40;;;14.40;99.90;;;;;;5032392;28;20472;-61
2021/08/21 03:52:23;;;;;;;23.10;15.67;;;14.40;99.90;;;;;;5034060;28;20445;-63
2021/08/21 03:54:50;;;;;;;19.83;15.77;;;14.40;99.90;;;;;;5047345;28;20455;-59
2021/08/21 03:57:17;;;;;;;19.83;15.13;;;14.50;99.90;;;;;;5054140;28;20514;-61
2021/08/21 03:59:43;;;;;;;14.90;13.20;;;14.50;99.90;;;;;;5053916;28;20526;-63
2021/08/21 04:02:11;;;;;;;19.00;15.00;;;14.60;99.90;;;;;;5053986;28;20830;-63
2021/08/21 04:04:38;;;;;;;18.77;15.60;;;14.60;99.90;;;;;;5042564;28;20456;-60
2021/08/21 04:07:05;;;;;;;21.63;16.90;;;14.70;99.90;;;;;;5034122;28;20453;-62
2021/08/21 04:09:31;;;;;;;18.50;15.47;;;14.70;99.90;;;;;;5033644;28;20818;-60
2021/08/21 04:11:58;;;;;;;16.07;14.10;;;14.80;99.90;;;;;;5033904;28;20442;-62
2021/08/21 04:14:25;;;;;;;18.10;15.33;;;14.90;99.90;;;;;;5043065;28;20452;-61
2021/08/21 04:16:51;;;;;;;16.10;14.23;;;14.90;99.90;;;;;;5053827;28;20487;-60
2021/08/21 04:19:20;;;;;;;16.63;14.53;;;15.00;99.90;;;;;;5053604;28;20445;-62
2021/08/21 04:21:46;;;;;;;19.43;17.37;;;15.10;99.90;;;;;;5053667;28;20464;-62
2021/08/21 04:24:13;;;;;;;21.87;14.57;;;15.10;99.90;;;;;;5046077;28;20460;-60
2021/08/21 04:26:40;;;;;;;20.07;13.67;;;15.10;99.90;;;;;;5033649;28;20446;-62
2021/08/21 04:29:06;;;;;;;18.77;14.93;;;15.20;99.90;;;;;;5033828;28;20784;-61
2021/08/21 04:31:33;;;;;;;16.57;14.90;;;15.20;99.90;;;;;;5033304;28;20551;-63
2021/08/21 04:34:00;;;;;;;15.87;14.00;;;15.30;99.90;;;;;;5038490;28;20855;-61
2021/08/21 04:36:28;;;;;;;14.73;13.10;;;15.40;99.90;;;;;;5053522;28;20444;-62
2021/08/21 04:38:55;;;;;;;13.23;12.03;;;15.40;99.90;;;;;;5053616;28;20448;-62
2021/08/21 04:41:21;;;;;;;14.83;13.27;;;15.50;99.90;;;;;;5053145;28;20472;-62
2021/08/21 04:43:48;;;;;;;17.93;14.03;;;15.50;99.90;;;;;;5050257;28;20441;-62
2021/08/21 04:46:15;;;;;;;16.77;13.93;;;15.50;99.90;;;;;;5033460;28;20441;-61
2021/08/21 04:48:41;;;;;;;21.77;13.53;;;15.60;99.90;;;;;;5033230;28;20468;-63
2021/08/21 04:51:08;;;;;;;15.40;12.80;;;15.60;99.90;;;;;;5033011;28;20468;-61
2021/08/21 04:53:36;;;;;;;13.97;12.67;;;15.60;99.90;;;;;;5033310;28;20452;-61
2021/08/21 04:56:03;;;;;;;16.33;13.10;;;15.70;99.90;;;;;;5053032;28;20907;-62
2021/08/21 04:58:30;;;;;;;15.80;13.53;;;15.70;99.90;;;;;;5052584;28;20486;-62
2021/08/21 05:00:56;;;;;;;15.43;14.00;;;15.80;99.90;;;;;;5053250;28;20476;-65
2021/08/21 05:03:23;;;;;;;15.27;13.80;;;15.80;99.90;;;;;;5050679;28;20456;-61
2021/08/21 05:05:50;;;;;;;14.40;13.07;;;15.90;99.90;;;;;;5030450;28;20456;-60
2021/08/21 05:08:17;;;;;;;16.73;14.37;;;15.90;99.90;;;;;;5032980;28;20938;-62
2021/08/21 05:10:45;;;;;;;14.60;13.00;;;16.00;99.90;;;;;;5032852;28;20571;-64
2021/08/21 05:13:11;;;;;;;13.73;12.53;;;16.00;99.90;;;;;;5038831;28;20455;-62
2021/08/21 05:15:39;;;;;;;16.20;14.50;;;16.10;99.90;;;;;;5052723;28;20448;-62
2021/08/21 05:18:06;;;;;;;13.60;12.17;;;16.10;99.90;;;;;;5052538;28;20491;-62
2021/08/21 05:20:42;;;;;;;17.53;13.20;;;16.20;99.90;;;;;;5052667;28;20506;-62
2021/08/21 05:23:14;;;;;;;14.23;12.80;;;16.30;99.90;;;;;;5046179;28;20472;-62
2021/08/21 05:25:42;;;;;;;17.20;13.87;;;16.30;99.90;;;;;;5032518;28;20819;-59
2021/08/21 05:28:13;;;;;;;13.73;12.40;;;16.30;99.90;;;;;;5032225;28;20480;-62
2021/08/21 05:30:40;;;;;;;13.60;12.33;;;16.40;99.90;;;;;;5032308;28;20501;-62
2021/08/21 05:33:11;;;;;;;14.33;13.00;;;16.40;99.90;;;;;;5037042;28;20444;-62
2021/08/21 05:35:38;;;;;;;15.47;14.17;;;16.50;99.90;;;;;;5052404;28;20447;-63
2021/08/21 05:38:05;;;;;;;14.37;13.17;;;16.50;99.90;;;;;;5052077;28;20486;-62
2021/08/21 05:40:31;;;;;;;15.67;13.30;;;16.60;99.90;;;;;;5052222;28;20469;-61
2021/08/21 05:42:59;;;;;;;14.57;13.37;;;16.70;99.90;;;;;;5047952;28;20456;-62
2021/08/21 05:45:27;;;;;;;13.80;12.50;;;16.70;99.90;;;;;;5032133;28;20445;-62
2021/08/21 05:47:55;;;;;;;15.37;14.10;;;16.80;99.90;;;;;;5032239;28;20445;-62
2021/08/21 05:50:22;;;;;;;13.03;11.93;;;16.90;99.90;;;;;;5031974;28;20465;-65
2021/08/21 05:52:49;;;;;;;14.60;13.40;;;17.00;99.90;;;;;;5032308;28;20447;-63
2021/08/21 05:55:16;;;;;;;15.83;14.33;;;17.10;99.90;;;;;;5031636;28;20522;-63
2021/08/21 05:57:43;;;;;;;15.50;14.20;;;17.10;99.90;;;;;;5031719;28;20484;-63
2021/08/21 06:00:11;;;;;;;14.47;13.17;;;17.20;99.90;;;;;;5031617;28;20846;-63
2021/08/21 06:02:39;;;;;;;14.93;13.83;;;17.30;99.90;;;;;;5046643;28;20810;-64
2021/08/21 06:05:06;;;;;;;15.20;13.80;;;17.30;99.90;;;;;;5051668;28;20861;-64
2021/08/21 06:07:33;;;;;;;13.53;12.33;;;17.30;99.90;;;;;;5051561;28;20463;-63
2021/08/21 06:10:00;;;;;;;14.10;12.90;;;17.40;99.90;;;;;;5051526;28;21054;-62
2021/08/21 06:12:28;;;;;;;13.50;12.50;;;17.50;99.90;;;;;;5036591;28;20440;-63
2021/08/21 06:14:55;;;;;;;14.90;13.80;;;17.50;99.90;;;;;;5031699;28;20452;-63
2021/08/21 06:17:21;;;;;;;15.00;13.80;;;17.50;99.90;;;;;;5031553;28;20886;-64
2021/08/21 06:19:49;;;;;;;14.90;13.40;;;17.50;99.90;;;;;;5031468;28;20465;-64
2021/08/21 06:22:16;;;;;;;15.03;13.83;;;17.50;99.90;;;;;;5042494;28;20444;-62
2021/08/21 06:24:43;;;;;;;14.83;13.60;;;17.50;99.90;;;;;;5051511;28;20461;-63
2021/08/21 06:27:09;;;;;;;15.07;13.87;;;17.50;99.90;;;;;;5051411;28;20448;-63
2021/08/21 06:29:36;;;;;;;23.63;14.07;;;17.50;99.90;;;;;;5051530;28;20940;-63
2021/08/21 06:32:06;;;;;;;14.50;13.37;;;17.50;99.90;;;;;;5040880;28;20865;-63
2021/08/21 06:34:34;;;;;;;13.67;12.63;;;17.40;99.90;;;;;;5031256;28;20454;-63
2021/08/21 06:37:02;;;;;;;15.00;13.80;;;17.40;99.90;;;;;;5031281;28;20499;-63
2021/08/21 06:39:29;;;;;;;14.27;13.17;;;17.40;99.90;;;;;;5033496;28;20444;-63
2021/08/21 06:41:56;;;;;;;14.77;13.67;;;17.40;99.90;;;;;;5050695;28;20448;-61
2021/08/21 06:44:22;;;;;;;14.27;13.10;;;17.40;99.90;;;;;;5051280;28;20455;-64
2021/08/21 06:46:49;;;;;;;13.30;12.40;;;17.40;99.90;;;;;;5051170;28;20452;-63
2021/08/21 06:49:16;;;;;;;14.97;13.77;;;17.60;99.90;;;;;;5050765;28;20440;-63
2021/08/21 06:51:42;;;;;;;16.33;15.03;;;17.60;99.90;;;;;;5030621;28;20469;-64
2021/08/21 06:54:10;;;;;;;15.33;13.90;;;17.70;99.90;;;;;;5029324;28;20467;-63
2021/08/21 06:56:37;;;;;;;15.23;14.03;;;17.80;99.90;;;;;;5029691;28;20440;-62
2021/08/21 06:59:04;;;;;;;15.30;14.20;;;17.90;99.90;;;;;;5030064;28;20477;-64
2021/08/21 07:01:31;;;;;;;12.77;11.80;;;18.10;99.90;;;;;;5048222;28;20484;-64
2021/08/21 07:03:57;;;;;;;14.93;13.70;;;18.20;99.90;;;;;;5050190;28;20539;-65
2021/08/21 07:06:24;;;;;;;14.37;13.50;;;18.40;99.90;;;;;;5050012;28;20455;-65
2021/08/21 07:08:51;;;;;;;15.93;14.93;;;18.60;99.90;;;;;;5050056;28;20451;-65
2021/08/21 07:11:19;;;;;;;15.33;14.33;;;18.70;99.90;;;;;;5033992;28;20469;-64
2021/08/21 07:13:46;;;;;;;15.60;14.60;;;18.90;99.90;;;;;;5031272;28;20448;-64
2021/08/21 07:16:13;;;;;;;15.57;14.57;;;18.90;99.90;;;;;;5031206;28;20441;-65
2021/08/21 07:18:40;;;;;;;15.27;14.10;;;19.10;99.90;;;;;;5030990;28;21001;-64
2021/08/21 07:21:09;;;;;;;16.20;15.10;;;19.30;99.90;;;;;;5045225;28;20551;-62
2021/08/21 07:23:35;;;;;;;16.33;15.40;;;19.40;99.90;;;;;;5050592;28;20485;-63
2021/08/21 07:26:02;;;;;;;16.97;15.63;;;19.40;99.90;;;;;;5054558;28;20439;-64
2021/08/21 07:28:31;;;;;;;16.90;15.90;;;19.50;99.90;;;;;;5054959;28;20933;-60
2021/08/21 07:30:57;;;;;;;17.37;16.40;;;19.60;99.90;;;;;;5041269;28;20469;-65
2021/08/21 07:33:24;;;;;;;16.03;15.23;;;19.70;99.90;;;;;;5034845;28;20789;-63
2021/08/21 07:35:51;;;;;;;16.93;16.03;;;19.80;99.90;;;;;;5034915;28;20456;-64
2021/08/21 07:38:17;;;;;;;15.67;14.97;;;19.90;99.90;;;;;;5034816;28;20857;-65
2021/08/21 07:40:44;;;;;;;16.53;15.50;;;20.10;99.90;;;;;;5045273;28;20464;-64
2021/08/21 07:43:11;;;;;;;16.63;15.83;;;20.20;99.90;;;;;;5054334;28;20444;-65
2021/08/21 07:45:39;;;;;;;17.27;16.40;;;20.30;99.90;;;;;;5054360;28;20534;-62
2021/08/21 07:48:07;;;;;;;16.13;15.23;;;20.40;99.90;;;;;;5053812;28;20444;-63
2021/08/21 07:50:34;;;;;;;15.03;14.40;;;20.50;99.90;;;;;;5034476;28;20472;-64
2021/08/21 07:53:00;;;;;;;18.60;17.50;;;20.70;99.90;;;;;;5034221;28;20445;-63
2021/08/21 07:55:27;;;;;;;16.70;15.60;;;20.70;99.90;;;;;;5034576;28;20819;-62
2021/08/21 07:57:54;;;;;;;17.33;16.50;;;20.80;99.90;;;;;;5046375;28;20484;-63
2021/08/21 08:00:21;;;;;;;16.20;15.33;;;20.90;99.90;;;;;;5054191;28;20471;-64
2021/08/21 08:02:49;;;;;;;16.90;16.20;;;21.00;99.90;;;;;;5054118;28;20448;-64
2021/08/21 08:05:16;;;;;;;16.23;15.53;;;21.00;99.90;;;;;;5049999;28;20453;-65
2021/08/21 08:07:43;;;;;;;15.77;14.90;;;21.20;99.90;;;;;;5034108;28;20457;-65
2021/08/21 08:10:10;;;;;;;16.57;15.87;;;21.30;99.90;;;;;;5034163;28;20790;-65
2021/08/21 08:12:37;;;;;;;16.97;16.00;;;21.50;99.90;;;;;;5033981;28;20810;-64
2021/08/21 08:15:05;;;;;;;17.00;16.20;;;21.60;99.90;;;;;;5035936;28;20451;-66
2021/08/21 08:17:32;;;;;;;17.10;16.30;;;21.70;99.90;;;;;;5053936;28;20803;-65
2021/08/21 08:20:00;;;;;;;17.83;16.93;;;21.80;99.90;;;;;;5053958;28;20460;-64
2021/08/21 08:22:27;;;;;;;18.07;17.07;;;21.90;99.90;;;;;;5053580;28;20685;-65
2021/08/21 08:24:54;;;;;;;18.67;17.47;;;22.00;99.90;;;;;;5039335;28;20449;-63
2021/08/21 08:27:21;;;;;;;18.77;17.87;;;22.20;99.90;;;;;;5042811;28;20501;-64
2021/08/21 08:29:48;;;;;;;18.97;17.67;;;22.40;99.90;;;;;;5053544;28;20467;-63
2021/08/21 08:32:15;;;;;;;17.80;16.73;;;22.50;99.90;;;;;;5053580;28;20440;-62
2021/08/21 08:34:42;;;;;;;17.33;16.43;;;22.80;99.90;;;;;;5040639;28;20457;-61
2021/08/21 08:37:12;;;;;;;16.60;15.90;;;23.20;99.90;;;;;;5033417;28;20454;-64
2021/08/21 08:39:40;;;;;;;18.40;17.50;;;23.50;99.90;;;;;;5033459;28;20568;-63
2021/08/21 08:42:08;;;;;;;17.10;16.40;;;23.60;99.90;;;;;;5033427;28;20445;-64
2021/08/21 08:44:36;;;;;;;20.43;19.33;;;23.70;99.90;;;;;;5044528;28;20491;-65
2021/08/21 08:47:04;;;;;;;18.57;17.77;;;23.70;99.90;;;;;;5053388;28;20448;-64
2021/08/21 08:49:31;;;;;;;19.23;18.23;;;23.80;99.90;;;;;;5053288;28;20451;-64
2021/08/21 08:51:58;;;;;;;18.57;17.77;;;23.70;99.90;;;;;;5049610;28;20442;-62
2021/08/21 08:54:27;;;;;;;17.97;17.20;;;23.70;99.90;;;;;;5033474;28;20449;-62
2021/08/21 08:56:54;;;;;;;21.03;19.43;;;23.80;99.90;;;;;;5033310;28;20437;-63
2021/08/21 08:59:20;;;;;;;18.70;17.90;;;23.70;99.90;;;;;;5033117;28;20559;-63
2021/08/21 09:01:47;;;;;;;18.53;17.63;;;23.50;99.90;;;;;;5034564;28;20472;-63
2021/08/21 09:04:16;;;;;;;18.30;17.50;;;23.50;99.90;;;;;;5053035;28;20450;-65
2021/08/21 09:06:43;;;;;;;18.40;17.50;;;23.40;99.90;;;;;;5053068;28;20445;-63
2021/08/21 09:09:11;;;;;;;18.97;18.07;;;23.30;99.90;;;;;;5053206;28;20809;-64
2021/08/21 09:11:43;;;;;;;18.70;17.63;;;23.30;99.90;;;;;;5052286;28;20465;-63
2021/08/21 09:14:18;;;;;;;19.30;18.30;;;23.30;99.90;;;;;;5031796;28;20449;-63
2021/08/21 09:16:45;;;;;;;18.77;17.87;;;23.30;99.90;;;;;;5032963;28;20452;-63
2021/08/21 09:19:12;;;;;;;19.73;18.67;;;23.40;99.90;;;;;;5032874;28;20481;-62
2021/08/21 09:21:59;;;;;;;17.30;16.60;;;23.50;99.90;;;;;;5032701;28;20920;-63
2021/08/21 09:24:26;;;;;;;17.57;16.87;;;23.50;99.90;;;;;;5013029;28;20816;-63
2021/08/21 09:26:54;;;;;;;19.23;17.80;;;23.60;99.90;;;;;;5013139;28;20461;-62
2021/08/21 09:29:27;;;;;;;19.37;18.47;;;23.70;99.90;;;;;;5012946;28;20449;-61
2021/08/21 09:32:06;;;;;;;20.20;19.10;;;23.90;99.90;;;;;;5016495;28;20478;-63
2021/08/21 09:34:33;;;;;;;19.80;18.80;;;23.90;99.90;;;;;;5052446;28;20444;-63
2021/08/21 09:37:00;;;;;;;18.60;17.77;;;24.10;99.90;;;;;;5052513;28;20452;-63
2021/08/21 09:39:37;;;;;;;18.73;17.87;;;24.20;99.90;;;;;;5052379;28;20553;-63
2021/08/21 09:42:07;;;;;;;19.57;18.57;;;24.10;99.90;;;;;;5048879;28;20453;-64
2021/08/21 09:44:35;;;;;;;18.70;17.80;;;24.20;99.90;;;;;;5032389;28;20927;-65
2021/08/21 09:47:14;;;;;;;18.80;18.00;;;24.30;99.90;;;;;;5031620;28;20449;-64
2021/08/21 09:49:42;;;;;;;20.10;19.10;;;24.50;99.90;;;;;;5032178;28;20441;-62
2021/08/21 09:52:12;;;;;;;18.73;17.73;;;24.50;99.90;;;;;;5030896;28;20444;-63
2021/08/21 09:54:39;;;;;;;19.20;18.40;;;24.60;99.90;;;;;;5037280;28;20525;-65
2021/08/21 09:57:08;;;;;;;18.37;17.60;;;24.60;99.90;;;;;;5051938;28;20452;-63
2021/08/21 09:59:36;;;;;;;18.73;18.00;;;24.70;99.90;;;;;;5051862;28;20484;-63
2021/08/21 10:02:07;;;;;;;19.53;18.73;;;24.70;99.90;;;;;;5042871;28;20441;-63
2021/08/21 10:04:35;;;;;;;18.30;17.50;;;24.80;99.90;;;;;;5032036;28;20931;-64
2021/08/21 10:07:04;;;;;;;18.47;17.67;;;25.00;99.90;;;;;;5032099;28;20449;-63
2021/08/21 10:09:32;;;;;;;18.50;17.80;;;25.00;99.90;;;;;;5033221;28;20453;-64
2021/08/21 10:11:59;;;;;;;18.03;17.33;;;25.20;99.90;;;;;;5051512;28;20475;-63
2021/08/21 10:14:30;;;;;;;19.37;18.60;;;25.40;99.90;;;;;;5051763;28;20527;-64
2021/08/21 10:16:58;;;;;;;18.07;17.37;;;25.50;99.90;;;;;;5051842;28;20462;-62
2021/08/21 10:19:26;;;;;;;18.00;17.30;;;25.50;99.90;;;;;;5050693;28;20476;-65
2021/08/21 10:21:56;;;;;;;17.87;17.17;;;25.70;99.90;;;;;;5031471;28;20454;-63
2021/08/21 10:24:28;;;;;;;17.80;17.10;;;25.80;99.90;;;;;;5031940;28;20806;-63
2021/08/21 10:26:59;;;;;;;17.40;16.60;;;25.70;99.90;;;;;;5031703;28;20557;-64
2021/08/21 10:29:28;;;;;;;18.73;17.93;;;26.00;99.90;;;;;;5031601;28;20441;-65
2021/08/21 10:31:55;;;;;;;18.40;17.70;;;26.30;99.90;;;;;;5051515;28;20440;-65
2021/08/21 10:34:21;;;;;;;18.20;17.50;;;26.50;99.90;;;;;;5051497;28;20447;-65
2021/08/21 10:36:51;;;;;;;18.97;18.10;;;26.50;99.90;;;;;;5051210;28;20447;-65
2021/08/21 10:39:24;;;;;;;19.70;18.77;;;26.80;98.90;;;;;;5051351;28;20475;-65
2021/08/21 10:41:52;;;;;;;18.83;18.13;;;27.10;97.70;;;;;;5051222;28;20804;-66
2021/08/21 10:44:56;;;;;;;19.10;18.30;;;27.30;97.40;;;;;;5051449;28;20444;-65
2021/08/21 10:47:41;;;;;;;19.20;18.50;;;27.50;96.40;;;;;;4989877;28;20446;-63
2021/08/21 10:50:30;;;;;;;18.70;17.80;;;27.40;96.50;;;;;;4983860;28;20577;-63
2021/08/21 10:52:59;;;;;;;18.77;18.07;;;27.30;96.30;;;;;;5015244;28;20481;-66
2021/08/21 10:55:28;;;;;;;17.90;17.30;;;27.30;96.80;;;;;;5031526;28;20532;-66
2021/08/21 10:58:10;;;;;;;18.67;17.97;;;27.30;95.10;;;;;;5031475;28;20449;-65
2021/08/21 11:00:53;;;;;;;18.03;17.30;;;27.30;94.80;;;;;;5061006;23;20492;-71
2021/08/21 11:03:44;;;;;;;18.20;17.50;;;27.50;94.90;;;;;;5046904;28;20451;-70
2021/08/21 11:06:12;;;;;;;17.40;16.83;;;27.80;94.10;;;;;;5055084;28;20466;-69
2021/08/21 11:08:58;;;;;;;18.27;17.67;;;28.10;93.30;;;;;;5054866;28;20444;-70
2021/08/21 11:11:31;;;;;;;18.93;18.17;;;28.60;91.90;;;;;;5040749;28;20471;-69
2021/08/21 11:14:00;;;;;;;19.50;18.80;;;29.00;91.00;;;;;;5035639;28;20816;-70
2021/08/21 11:16:48;;;;;;;20.43;19.37;;;29.40;88.80;;;;;;5035481;28;20456;-72
2021/08/21 11:19:44;;;;;;;18.77;18.17;;;29.80;83.10;;;;;;5035639;28;20476;-70
2021/08/21 11:22:16;;;;;;;19.13;18.53;;;29.90;83.00;;;;;;4995638;28;20943;-70
2021/08/21 11:24:59;;;;;;;19.37;18.67;;;30.50;77.50;;;;;;5008051;28;20449;-70
2021/08/21 11:27:34;;;;;;;20.43;19.63;;;31.20;73.00;;;;;;5015722;28;20509;-69
2021/08/21 11:30:21;;;;;;;20.83;20.10;;;31.70;66.30;;;;;;5019320;28;20447;-71
2021/08/21 11:32:55;;;;;;;20.20;19.40;;;32.50;63.70;;;;;;5035041;28;20448;-72
2021/08/21 11:35:24;;;;;;;20.33;19.63;;;32.60;58.80;;;;;;5035309;28;20309;-73
2021/08/21 11:37:53;;;;;;;20.42;19.58;;;33.30;57.40;;;;;;5035270;28;20217;-68
2021/08/21 11:40:21;;;;;;;19.98;19.27;;;34.90;54.40;;;;;;5028401;28;20230;-69
2021/08/21 11:42:53;;;;;;;19.25;18.65;;;36.70;50.20;;;;;;5015082;28;20207;-70
2021/08/21 11:45:20;;;;;;;19.92;19.33;;;38.60;45.00;;;;;;5015604;28;20221;-70
2021/08/21 11:47:47;;;;;;;20.13;19.42;;;39.70;41.80;;;;;;5015164;28;20206;-70
2021/08/21 11:50:36;;;;;;;20.05;19.45;;;40.80;39.60;;;;;;5019838;28;20279;-70
2021/08/21 11:53:05;;;;;;;20.00;19.35;;;42.10;36.80;;;;;;5030075;28;20210;-71
2021/08/21 11:55:34;;;;;;;19.10;18.50;;;43.20;34.70;;;;;;5035117;28;20578;-70
2021/08/21 11:58:01;;;;;;;19.98;19.27;;;44.00;32.80;;;;;;5034746;28;20205;-69
2021/08/21 12:00:29;;;;;;;19.60;18.90;;;44.90;31.60;;;;;;5027283;28;20222;-70
2021/08/21 12:02:58;;;;;;;19.73;18.92;;;44.30;30.50;;;;;;5014767;28;20209;-71
2021/08/21 12:05:27;;;;;;;20.73;20.02;;;44.70;30.60;;;;;;5014661;28;20214;-72
2021/08/21 12:07:55;;;;;;;20.25;19.33;;;45.40;29.50;;;;;;5026102;28;20209;-73
2021/08/21 12:10:24;;;;;;;20.42;19.73;;;46.40;28.10;;;;;;5034039;28;20213;-74
2021/08/21 12:12:55;;;;;;;20.10;19.40;;;47.60;27.60;;;;;;5035006;28;20202;-73
2021/08/21 12:15:29;;;;;;;21.05;20.35;;;48.10;27.00;;;;;;5030229;28;20198;-74
2021/08/21 12:17:57;;;;;;;21.10;20.30;;;48.10;26.70;;;;;;5014280;28;20202;-73
2021/08/21 12:20:24;;;;;;;20.88;20.17;;;48.00;26.20;;;;;;5014349;28;20226;-74
2021/08/21 12:22:51;;;;;;;20.23;19.63;;;48.50;26.20;;;;;;5015066;28;20199;-74
2021/08/21 12:25:20;;;;;;;20.73;20.00;;;48.80;25.80;;;;;;5017773;28;20190;-74
2021/08/21 12:27:47;;;;;;;21.35;20.65;;;49.50;25.40;;;;;;5033876;28;20678;-74
2021/08/21 12:30:17;;;;;;;21.60;20.90;;;49.90;25.00;;;;;;5033635;28;20222;-74
2021/08/21 12:32:44;;;;;;;21.77;21.08;;;49.00;24.90;;;;;;5034034;28;20202;-73
2021/08/21 12:35:17;;;;;;;19.63;18.95;;;49.20;24.70;;;;;;5031859;28;20214;-74